createdAt,value
2022-12-23T00:00:29.579Z,0.00
2022-12-23T00:01:29.607Z,0.00
2022-12-23T00:02:29.622Z,0.00
2022-12-23T00:03:29.733Z,0.00
2022-12-23T00:04:29.491Z,0.00
2022-12-23T00:05:35.762Z,0.00
2022-12-23T00:06:30.469Z,0.00
2022-12-23T00:07:29.624Z,0.00
2022-12-23T00:08:29.439Z,0.00
2022-12-23T00:09:29.417Z,0.00
2022-12-23T00:10:29.414Z,0.00
2022-12-23T00:11:29.397Z,0.00
2022-12-23T00:12:29.564Z,0.00
2022-12-23T00:13:29.529Z,0.00
2022-12-23T00:14:29.349Z,0.00
2022-12-23T00:15:29.334Z,0.00
2022-12-23T00:16:29.449Z,0.00
2022-12-23T00:17:29.480Z,0.00
2022-12-23T00:18:29.307Z,0.00
2022-12-23T00:19:29.287Z,0.00
2022-12-23T00:20:29.283Z,0.00
2022-12-23T00:21:29.422Z,0.00
2022-12-23T00:22:29.254Z,0.00
2022-12-23T00:23:29.226Z,0.00
2022-12-23T00:24:29.215Z,0.00
2022-12-23T00:25:29.209Z,0.00
2022-12-23T00:26:29.394Z,0.00
2022-12-23T00:27:34.222Z,0.00
2022-12-23T00:28:30.177Z,0.00
2022-12-23T00:29:29.322Z,0.00
2022-12-23T00:30:29.158Z,0.00
2022-12-23T00:31:29.183Z,0.00
2022-12-23T00:32:29.138Z,0.00
2022-12-23T00:33:29.275Z,0.00
2022-12-23T00:34:29.109Z,0.00
2022-12-23T00:35:29.075Z,0.00
2022-12-23T00:36:29.178Z,0.00
2022-12-23T00:37:29.052Z,0.00
2022-12-23T00:38:29.216Z,0.00
2022-12-23T00:39:29.022Z,0.00
2022-12-23T00:40:29.011Z,0.00
2022-12-23T00:41:29.178Z,0.00
2022-12-23T00:42:28.993Z,0.00
2022-12-23T00:43:28.996Z,0.00
2022-12-23T00:44:28.974Z,0.00
2022-12-23T00:45:29.186Z,0.00
2022-12-23T00:46:29.037Z,0.00
2022-12-23T00:47:28.920Z,0.00
2022-12-23T00:48:28.924Z,0.00
2022-12-23T00:49:28.919Z,0.00
2022-12-23T00:50:28.900Z,0.00
2022-12-23T00:51:28.874Z,0.00
2022-12-23T00:52:28.884Z,0.00
2022-12-23T00:53:28.870Z,0.00
2022-12-23T00:54:28.827Z,0.00
2022-12-23T00:55:28.832Z,0.00
2022-12-23T00:56:28.969Z,0.00
2022-12-23T00:57:28.791Z,0.00
2022-12-23T00:58:28.780Z,0.00
2022-12-23T00:59:28.784Z,0.00
2022-12-23T01:00:28.738Z,0.00
2022-12-23T01:01:28.940Z,0.00
2022-12-23T01:02:28.954Z,0.00
2022-12-23T01:03:28.757Z,0.00
2022-12-23T01:04:28.709Z,0.00
2022-12-23T01:05:28.677Z,0.00
2022-12-23T01:06:28.673Z,0.00
2022-12-23T01:07:28.827Z,0.00
2022-12-23T01:08:28.640Z,0.00
2022-12-23T01:09:28.638Z,0.00
2022-12-23T01:10:28.608Z,0.00
2022-12-23T01:11:28.860Z,0.00
2022-12-23T01:12:28.602Z,0.00
2022-12-23T01:13:28.577Z,0.00
2022-12-23T01:14:28.557Z,0.00
2022-12-23T01:15:28.545Z,0.00
2022-12-23T01:16:28.546Z,0.00
2022-12-23T01:17:28.695Z,0.00
2022-12-23T01:18:28.506Z,0.00
2022-12-23T01:19:28.495Z,0.00
2022-12-23T01:20:28.476Z,0.00
2022-12-23T01:21:28.473Z,0.00
2022-12-23T01:22:28.618Z,0.00
2022-12-23T01:23:28.465Z,0.00
2022-12-23T01:24:28.774Z,0.00
2022-12-23T01:25:28.440Z,0.00
2022-12-23T01:26:28.401Z,0.00
2022-12-23T01:27:28.396Z,0.00
2022-12-23T01:28:28.375Z,0.00
2022-12-23T01:29:28.372Z,0.00
2022-12-23T01:30:28.524Z,0.00
2022-12-23T01:31:28.577Z,0.00
2022-12-23T01:32:28.328Z,0.00
2022-12-23T01:33:28.309Z,0.00
2022-12-23T01:34:34.297Z,0.00
2022-12-23T01:35:29.282Z,0.00
2022-12-23T01:36:28.473Z,0.00
2022-12-23T01:37:28.260Z,0.00
2022-12-23T01:38:28.242Z,0.00
2022-12-23T01:39:28.241Z,0.00
2022-12-23T01:40:28.222Z,0.00
2022-12-23T01:41:28.207Z,0.00
2022-12-23T01:42:28.379Z,0.00
2022-12-23T01:43:28.188Z,0.00
2022-12-23T01:44:28.340Z,0.00
2022-12-23T01:45:28.187Z,0.00
2022-12-23T01:46:28.260Z,0.00
2022-12-23T01:47:28.150Z,0.00
2022-12-23T01:48:28.112Z,0.00
2022-12-23T01:49:28.270Z,0.00
2022-12-23T01:50:28.109Z,0.00
2022-12-23T01:51:28.085Z,0.00
2022-12-23T01:52:28.076Z,0.00
2022-12-23T01:53:28.049Z,0.00
2022-12-23T01:54:28.217Z,0.00
2022-12-23T01:55:28.025Z,0.00
2022-12-23T01:56:28.018Z,0.00
2022-12-23T01:57:27.991Z,0.00
2022-12-23T01:58:27.999Z,0.00
2022-12-23T01:59:28.147Z,0.00
2022-12-23T02:00:27.957Z,0.00
2022-12-23T02:01:28.047Z,0.00
2022-12-23T02:02:28.023Z,0.00
2022-12-23T02:03:27.945Z,0.00
2022-12-23T02:04:28.077Z,0.00
2022-12-23T02:05:27.886Z,0.00
2022-12-23T02:06:27.877Z,0.00
2022-12-23T02:07:27.857Z,0.00
2022-12-23T02:08:27.848Z,0.00
2022-12-23T02:09:28.017Z,0.00
2022-12-23T02:10:27.825Z,0.00
2022-12-23T02:11:27.809Z,0.00
2022-12-23T02:12:27.800Z,0.00
2022-12-23T02:13:27.806Z,0.00
2022-12-23T02:14:27.980Z,0.00
2022-12-23T02:15:27.774Z,0.00
2022-12-23T02:16:27.794Z,0.00
2022-12-23T02:17:27.893Z,0.00
2022-12-23T02:18:27.725Z,0.00
2022-12-23T02:19:27.695Z,0.00
2022-12-23T02:20:27.695Z,0.00
2022-12-23T02:21:27.862Z,0.00
2022-12-23T02:22:27.673Z,0.00
2022-12-23T02:23:27.647Z,0.00
2022-12-23T02:24:27.672Z,0.00
2022-12-23T02:25:27.623Z,0.00
2022-12-23T02:26:27.813Z,0.00
2022-12-23T02:27:27.606Z,0.00
2022-12-23T02:28:27.850Z,0.00
2022-12-23T02:29:27.586Z,0.00
2022-12-23T02:30:27.566Z,0.00
2022-12-23T02:31:27.641Z,0.00
2022-12-23T02:32:27.782Z,0.00
2022-12-23T02:33:27.517Z,0.00
2022-12-23T02:34:27.692Z,0.00
2022-12-23T02:35:27.499Z,0.00
2022-12-23T02:36:27.482Z,0.00
2022-12-23T02:37:27.460Z,0.00
2022-12-23T02:38:27.469Z,0.00
2022-12-23T02:39:27.600Z,0.00
2022-12-23T02:40:27.468Z,0.00
2022-12-23T02:41:27.424Z,0.00
2022-12-23T02:42:27.403Z,0.00
2022-12-23T02:43:27.390Z,0.00
2022-12-23T02:44:27.617Z,0.00
2022-12-23T02:45:27.373Z,0.00
2022-12-23T02:46:27.466Z,0.00
2022-12-23T02:47:27.338Z,0.00
2022-12-23T02:48:27.333Z,0.00
2022-12-23T02:49:27.499Z,0.00
2022-12-23T02:50:27.311Z,0.00
2022-12-23T02:51:27.277Z,0.00
2022-12-23T02:52:27.281Z,0.00
2022-12-23T02:53:27.257Z,0.00
2022-12-23T02:54:27.427Z,0.00
2022-12-23T02:55:27.236Z,0.00
2022-12-23T02:56:27.238Z,0.00
2022-12-23T02:57:27.202Z,0.00
2022-12-23T02:58:27.193Z,0.00
2022-12-23T02:59:27.179Z,0.00
2022-12-23T03:00:27.192Z,0.00
2022-12-23T03:01:27.298Z,0.00
2022-12-23T03:02:27.297Z,0.00
2022-12-23T03:03:27.186Z,0.00
2022-12-23T03:04:27.121Z,0.00
2022-12-23T03:05:27.264Z,0.00
2022-12-23T03:06:27.093Z,0.00
2022-12-23T03:07:27.083Z,0.00
2022-12-23T03:08:27.070Z,0.00
2022-12-23T03:09:27.059Z,0.00
2022-12-23T03:10:27.048Z,0.00
2022-12-23T03:11:27.023Z,0.00
2022-12-23T03:12:27.186Z,0.00
2022-12-23T03:13:26.993Z,0.00
2022-12-23T03:14:26.984Z,0.00
2022-12-23T03:15:27.002Z,0.00
2022-12-23T03:16:27.005Z,0.00
2022-12-23T03:17:27.116Z,0.00
2022-12-23T03:18:26.933Z,0.00
2022-12-23T03:19:26.915Z,0.00
2022-12-23T03:20:26.927Z,0.00
2022-12-23T03:21:26.880Z,0.00
2022-12-23T03:22:27.063Z,0.00
2022-12-23T03:23:26.871Z,0.00
2022-12-23T03:24:26.851Z,0.00
2022-12-23T03:25:26.838Z,0.00
2022-12-23T03:26:26.821Z,0.00
2022-12-23T03:27:26.977Z,0.00
2022-12-23T03:28:26.819Z,0.00
2022-12-23T03:29:26.789Z,0.00
2022-12-23T03:30:26.769Z,0.00
2022-12-23T03:31:26.829Z,0.00
2022-12-23T03:32:26.766Z,0.00
2022-12-23T03:33:26.892Z,0.00
2022-12-23T03:34:26.723Z,0.00
2022-12-23T03:35:26.708Z,0.00
2022-12-23T03:36:26.695Z,0.00
2022-12-23T03:37:26.675Z,0.00
2022-12-23T03:38:26.827Z,0.00
2022-12-23T03:39:26.653Z,0.00
2022-12-23T03:40:26.649Z,0.00
2022-12-23T03:41:26.630Z,0.00
2022-12-23T03:42:26.614Z,0.00
2022-12-23T03:43:26.856Z,0.00
2022-12-23T03:44:26.599Z,0.00
2022-12-23T03:45:42.725Z,0.00
2022-12-23T03:46:27.576Z,0.00
2022-12-23T03:47:26.547Z,0.00
2022-12-23T03:48:26.535Z,0.00
2022-12-23T03:49:26.514Z,0.00
2022-12-23T03:50:26.525Z,0.00
2022-12-23T03:51:26.496Z,0.00
2022-12-23T03:52:26.487Z,0.00
2022-12-23T03:53:26.454Z,0.00
2022-12-23T03:54:26.468Z,0.00
2022-12-23T03:55:26.611Z,0.00
2022-12-23T03:56:26.603Z,0.00
2022-12-23T03:57:26.578Z,0.00
2022-12-23T03:58:26.393Z,0.00
2022-12-23T03:59:26.383Z,0.00
2022-12-23T04:00:26.377Z,0.00
2022-12-23T04:01:26.442Z,0.00
2022-12-23T04:02:26.627Z,0.00
2022-12-23T04:03:26.349Z,0.00
2022-12-23T04:04:26.323Z,0.00
2022-12-23T04:05:26.315Z,0.00
2022-12-23T04:06:26.301Z,0.00
2022-12-23T04:07:26.477Z,0.00
2022-12-23T04:08:26.271Z,0.00
2022-12-23T04:09:26.251Z,0.00
2022-12-23T04:10:26.262Z,0.00
2022-12-23T04:11:26.229Z,0.00
2022-12-23T04:12:26.215Z,0.00
2022-12-23T04:13:26.386Z,0.00
2022-12-23T04:14:26.197Z,0.00
2022-12-23T04:15:26.183Z,0.00
2022-12-23T04:16:26.399Z,0.00
2022-12-23T04:17:26.149Z,0.00
2022-12-23T04:18:26.149Z,0.00
2022-12-23T04:19:26.133Z,0.00
2022-12-23T04:20:26.115Z,0.00
2022-12-23T04:21:26.269Z,0.00
2022-12-23T04:22:26.093Z,0.00
2022-12-23T04:23:26.069Z,0.00
2022-12-23T04:24:26.229Z,0.00
2022-12-23T04:25:26.045Z,0.00
2022-12-23T04:26:26.044Z,0.00
2022-12-23T04:27:26.015Z,0.00
2022-12-23T04:28:26.007Z,0.00
2022-12-23T04:29:26.181Z,0.00
2022-12-23T04:30:31.545Z,0.00
2022-12-23T04:31:27.218Z,0.00
2022-12-23T04:32:25.947Z,0.00
2022-12-23T04:33:25.940Z,0.00
2022-12-23T04:34:25.927Z,0.00
2022-12-23T04:35:25.907Z,0.00
2022-12-23T04:36:26.071Z,0.00
2022-12-23T04:37:25.887Z,0.00
2022-12-23T04:38:25.875Z,0.00
2022-12-23T04:39:25.869Z,0.00
2022-12-23T04:40:25.860Z,0.00
2022-12-23T04:41:26.016Z,0.00
2022-12-23T04:42:26.010Z,0.00
2022-12-23T04:43:25.804Z,0.00
2022-12-23T04:44:25.798Z,0.00
2022-12-23T04:45:25.787Z,0.00
2022-12-23T04:46:25.832Z,0.00
2022-12-23T04:47:25.926Z,0.00
2022-12-23T04:48:25.745Z,0.00
2022-12-23T04:49:25.741Z,0.00
2022-12-23T04:50:25.713Z,0.00
2022-12-23T04:51:25.705Z,0.00
2022-12-23T04:52:25.707Z,0.00
2022-12-23T04:53:25.869Z,0.00
2022-12-23T04:54:25.664Z,0.00
2022-12-23T04:55:25.642Z,0.00
2022-12-23T04:56:25.643Z,0.00
2022-12-23T04:57:25.623Z,0.00
2022-12-23T04:58:25.795Z,0.00
2022-12-23T04:59:25.593Z,0.00
2022-12-23T05:00:25.591Z,0.00
2022-12-23T05:01:25.618Z,0.00
2022-12-23T05:02:25.676Z,0.00
2022-12-23T05:03:25.739Z,0.00
2022-12-23T05:04:25.669Z,0.00
2022-12-23T05:05:25.683Z,0.00
2022-12-23T05:06:25.513Z,0.00
2022-12-23T05:07:25.492Z,0.00
2022-12-23T05:08:25.495Z,0.00
2022-12-23T05:09:25.477Z,0.00
2022-12-23T05:10:25.580Z,0.00
2022-12-23T05:11:25.445Z,0.00
2022-12-23T05:12:25.431Z,0.00
2022-12-23T05:13:25.413Z,0.00
2022-12-23T05:14:25.409Z,0.00
2022-12-23T05:15:25.563Z,0.00
2022-12-23T05:16:25.421Z,0.00
2022-12-23T05:17:25.361Z,0.00
2022-12-23T05:18:25.378Z,0.00
2022-12-23T05:19:25.333Z,0.00
2022-12-23T05:20:25.489Z,0.00
2022-12-23T05:21:25.315Z,0.00
2022-12-23T05:22:25.297Z,0.00
2022-12-23T05:23:25.297Z,0.00
2022-12-23T05:24:25.280Z,0.00
2022-12-23T05:25:25.419Z,0.00
2022-12-23T05:26:25.250Z,0.00
2022-12-23T05:27:25.407Z,0.00
2022-12-23T05:28:25.219Z,0.00
2022-12-23T05:29:25.206Z,0.00
2022-12-23T05:30:25.195Z,0.00
2022-12-23T05:31:25.223Z,0.00
2022-12-23T05:32:25.345Z,0.00
2022-12-23T05:33:25.188Z,0.00
2022-12-23T05:34:25.146Z,0.00
2022-12-23T05:35:25.124Z,0.00
2022-12-23T05:36:25.117Z,0.00
2022-12-23T05:37:25.106Z,0.00
2022-12-23T05:38:25.254Z,0.00
2022-12-23T05:39:25.066Z,0.00
2022-12-23T05:40:27.836Z,0.00
2022-12-23T05:41:26.045Z,0.00
2022-12-23T05:42:25.208Z,0.00
2022-12-23T05:43:25.018Z,0.00
2022-12-23T05:44:25.003Z,0.00
2022-12-23T05:45:26.507Z,0.00
2022-12-23T05:46:27.010Z,0.00
2022-12-23T05:47:25.130Z,0.00
2022-12-23T05:48:24.952Z,0.00
2022-12-23T05:49:24.944Z,0.00
2022-12-23T05:50:25.116Z,0.00
2022-12-23T05:51:24.951Z,0.00
2022-12-23T05:52:24.906Z,0.00
2022-12-23T05:53:24.901Z,0.00
2022-12-23T05:54:24.884Z,0.00
2022-12-23T05:55:25.032Z,0.00
2022-12-23T05:56:24.851Z,0.00
2022-12-23T05:57:24.831Z,0.00
2022-12-23T05:58:24.991Z,0.00
2022-12-23T05:59:30.550Z,0.00
2022-12-23T06:00:25.791Z,0.00
2022-12-23T06:01:24.778Z,0.00
2022-12-23T06:02:24.892Z,0.00
2022-12-23T06:03:25.099Z,0.00
2022-12-23T06:04:24.811Z,0.00
2022-12-23T06:05:24.731Z,0.00
2022-12-23T06:06:24.738Z,0.00
2022-12-23T06:07:24.698Z,0.00
2022-12-23T06:08:24.708Z,0.00
2022-12-23T06:09:24.677Z,0.00
2022-12-23T06:10:24.658Z,0.00
2022-12-23T06:11:24.648Z,0.00
2022-12-23T06:12:24.649Z,0.00
2022-12-23T06:13:24.809Z,0.00
2022-12-23T06:14:28.767Z,0.00
2022-12-23T06:15:24.594Z,0.00
2022-12-23T06:16:24.656Z,0.00
2022-12-23T06:17:24.569Z,0.00
2022-12-23T06:18:24.736Z,0.00
2022-12-23T06:19:24.561Z,0.00
2022-12-23T06:20:24.536Z,0.00
2022-12-23T06:21:24.698Z,0.00
2022-12-23T06:22:24.515Z,0.00
2022-12-23T06:23:24.498Z,0.00
2022-12-23T06:24:24.476Z,0.00
2022-12-23T06:25:24.466Z,0.00
2022-12-23T06:26:24.467Z,0.00
2022-12-23T06:27:24.455Z,0.00
2022-12-23T06:28:24.439Z,0.00
2022-12-23T06:29:24.412Z,0.00
2022-12-23T06:30:24.421Z,0.00
2022-12-23T06:31:24.454Z,0.00
2022-12-23T06:32:24.377Z,0.00
2022-12-23T06:33:24.524Z,0.00
2022-12-23T06:34:24.357Z,0.00
2022-12-23T06:35:24.504Z,0.00
2022-12-23T06:36:24.327Z,0.00
2022-12-23T06:37:24.319Z,0.00
2022-12-23T06:38:24.311Z,0.00
2022-12-23T06:39:24.277Z,0.00
2022-12-23T06:40:24.449Z,0.00
2022-12-23T06:41:24.258Z,0.00
2022-12-23T06:42:24.253Z,0.00
2022-12-23T06:43:24.235Z,0.00
2022-12-23T06:44:24.223Z,0.00
2022-12-23T06:45:24.379Z,0.00
2022-12-23T06:46:24.228Z,0.00
2022-12-23T06:47:24.355Z,0.00
2022-12-23T06:48:24.173Z,0.00
2022-12-23T06:49:24.159Z,0.00
2022-12-23T06:50:24.139Z,0.00
2022-12-23T06:51:24.130Z,0.00
2022-12-23T06:52:24.122Z,0.00
2022-12-23T06:53:24.102Z,0.00
2022-12-23T06:54:24.093Z,0.00
2022-12-23T06:55:24.244Z,0.00
2022-12-23T06:56:24.084Z,0.00
2022-12-23T06:57:24.046Z,0.00
2022-12-23T06:58:24.030Z,0.00
2022-12-23T06:59:24.043Z,0.00
2022-12-23T07:00:24.032Z,0.00
2022-12-23T07:01:24.042Z,0.00
2022-12-23T07:02:24.045Z,0.00
2022-12-23T07:03:24.029Z,0.00
2022-12-23T07:04:23.953Z,0.00
2022-12-23T07:05:24.119Z,0.00
2022-12-23T07:06:23.926Z,0.00
2022-12-23T07:07:23.923Z,0.00
2022-12-23T07:08:23.927Z,0.00
2022-12-23T07:09:23.877Z,0.00
2022-12-23T07:10:23.880Z,0.00
2022-12-23T07:11:24.041Z,0.00
2022-12-23T07:12:23.847Z,0.00
2022-12-23T07:13:23.835Z,0.00
2022-12-23T07:14:23.856Z,0.00
2022-12-23T07:15:23.823Z,0.00
2022-12-23T07:16:23.835Z,0.00
2022-12-23T07:17:23.800Z,0.00
2022-12-23T07:18:23.787Z,4.00
2022-12-23T07:19:23.745Z,0.00
2022-12-23T07:20:23.748Z,0.00
2022-12-23T07:21:28.904Z,0.00
2022-12-23T07:22:24.885Z,0.00
2022-12-23T07:23:23.694Z,0.00
2022-12-23T07:24:23.683Z,4.00
2022-12-23T07:25:23.856Z,4.00
2022-12-23T07:26:23.699Z,0.00
2022-12-23T07:27:23.645Z,4.00
2022-12-23T07:28:23.642Z,4.00
2022-12-23T07:29:23.627Z,4.00
2022-12-23T07:30:23.775Z,4.00
2022-12-23T07:31:23.805Z,8.00
2022-12-23T07:32:23.585Z,4.00
2022-12-23T07:33:23.582Z,4.00
2022-12-23T07:34:23.732Z,4.00
2022-12-23T07:35:23.544Z,0.00
2022-12-23T07:36:23.559Z,4.00
2022-12-23T07:37:23.511Z,4.00
2022-12-23T07:38:23.520Z,4.00
2022-12-23T07:39:23.672Z,4.00
2022-12-23T07:40:23.485Z,4.00
2022-12-23T07:41:23.462Z,8.00
2022-12-23T07:43:24.439Z,4.00
2022-12-23T07:44:23.600Z,4.00
2022-12-23T07:45:23.591Z,4.00
2022-12-23T07:46:23.609Z,4.00
2022-12-23T07:47:23.414Z,4.00
2022-12-23T07:48:23.368Z,4.00
2022-12-23T07:49:23.361Z,4.00
2022-12-23T07:50:23.350Z,8.00
2022-12-23T07:51:23.520Z,8.00
2022-12-23T07:52:23.333Z,8.00
2022-12-23T07:53:23.322Z,8.00
2022-12-23T07:54:23.303Z,8.00
2022-12-23T07:55:23.287Z,12.00
2022-12-23T07:56:23.286Z,16.00
2022-12-23T07:57:23.264Z,16.00
2022-12-23T07:58:23.237Z,16.00
2022-12-23T07:59:23.413Z,16.00
2022-12-23T08:00:23.223Z,20.00
2022-12-23T08:01:23.317Z,24.00
2022-12-23T08:02:23.545Z,24.00
2022-12-23T08:03:23.352Z,20.00
2022-12-23T08:04:23.367Z,24.00
2022-12-23T08:05:23.372Z,24.00
2022-12-23T08:06:23.127Z,24.00
2022-12-23T08:07:23.128Z,20.00
2022-12-23T08:08:23.122Z,28.00
2022-12-23T08:09:23.115Z,28.00
2022-12-23T08:10:23.296Z,32.00
2022-12-23T08:11:23.077Z,28.00
2022-12-23T08:12:23.238Z,32.00
2022-12-23T08:13:23.044Z,28.00
2022-12-23T08:14:23.026Z,32.00
2022-12-23T08:15:23.020Z,40.00
2022-12-23T08:16:23.028Z,44.00
2022-12-23T08:17:23.050Z,40.00
2022-12-23T08:18:22.989Z,44.00
2022-12-23T08:19:22.974Z,32.00
2022-12-23T08:20:22.955Z,32.00
2022-12-23T08:21:22.951Z,32.00
2022-12-23T08:22:22.936Z,28.00
2022-12-23T08:23:25.051Z,28.00
2022-12-23T08:24:23.063Z,28.00
2022-12-23T08:25:22.890Z,24.00
2022-12-23T08:26:22.902Z,24.00
2022-12-23T08:27:22.855Z,28.00
2022-12-23T08:28:22.841Z,28.00
2022-12-23T08:29:23.015Z,32.00
2022-12-23T08:30:22.997Z,32.00
2022-12-23T08:31:23.068Z,36.00
2022-12-23T08:32:22.799Z,40.00
2022-12-23T08:33:22.784Z,44.00
2022-12-23T08:34:22.760Z,44.00
2022-12-23T08:35:22.777Z,48.00
2022-12-23T08:36:23.626Z,52.00
2022-12-23T08:37:22.757Z,52.00
2022-12-23T08:38:22.720Z,64.00
2022-12-23T08:39:22.709Z,64.00
2022-12-23T08:40:22.700Z,68.00
2022-12-23T08:41:22.690Z,76.00
2022-12-23T08:42:22.779Z,80.00
2022-12-23T08:43:22.652Z,80.00
2022-12-23T08:44:22.639Z,92.00
2022-12-23T08:45:22.629Z,96.00
2022-12-23T08:46:22.668Z,92.00
2022-12-23T08:47:22.648Z,84.00
2022-12-23T08:48:22.594Z,80.00
2022-12-23T08:49:22.746Z,76.00
2022-12-23T08:50:22.566Z,72.00
2022-12-23T08:51:22.581Z,76.00
2022-12-23T08:52:22.535Z,76.00
2022-12-23T08:53:22.547Z,80.00
2022-12-23T08:54:22.684Z,84.00
2022-12-23T08:55:22.495Z,84.00
2022-12-23T08:56:22.505Z,76.00
2022-12-23T08:57:22.480Z,76.00
2022-12-23T08:58:22.457Z,72.00
2022-12-23T08:59:22.625Z,68.00
2022-12-23T09:00:22.434Z,64.00
2022-12-23T09:01:22.487Z,64.00
2022-12-23T09:02:22.645Z,68.00
2022-12-23T09:03:22.467Z,68.00
2022-12-23T09:04:22.545Z,76.00
2022-12-23T09:05:22.368Z,80.00
2022-12-23T09:06:28.589Z,76.00
2022-12-23T09:07:23.336Z,60.00
2022-12-23T09:08:22.328Z,60.00
2022-12-23T09:09:22.474Z,64.00
2022-12-23T09:10:22.412Z,68.00
2022-12-23T09:11:22.443Z,56.00
2022-12-23T09:12:22.271Z,56.00
2022-12-23T09:13:30.827Z,52.00
2022-12-23T09:14:23.282Z,48.00
2022-12-23T09:15:22.227Z,48.00
2022-12-23T09:16:22.463Z,56.00
2022-12-23T09:17:22.207Z,52.00
2022-12-23T09:18:22.382Z,60.00
2022-12-23T09:19:22.179Z,80.00
2022-12-23T09:20:22.206Z,100.00
2022-12-23T09:21:22.162Z,108.00
2022-12-23T09:22:22.171Z,116.00
2022-12-23T09:23:22.131Z,108.00
2022-12-23T09:24:22.125Z,112.00
2022-12-23T09:25:22.106Z,108.00
2022-12-23T09:26:22.103Z,108.00
2022-12-23T09:27:22.068Z,108.00
2022-12-23T09:28:22.057Z,100.00
2022-12-23T09:29:22.210Z,92.00
2022-12-23T09:30:22.091Z,92.00
2022-12-23T09:31:22.157Z,96.00
2022-12-23T09:32:22.026Z,88.00
2022-12-23T09:33:22.000Z,84.00
2022-12-23T09:34:22.153Z,88.00
2022-12-23T09:35:21.959Z,80.00
2022-12-23T09:36:21.967Z,80.00
2022-12-23T09:37:21.929Z,80.00
2022-12-23T09:38:21.934Z,88.00
2022-12-23T09:39:21.919Z,84.00
2022-12-23T09:40:21.971Z,76.00
2022-12-23T09:41:22.087Z,88.00
2022-12-23T09:42:21.878Z,104.00
2022-12-23T09:43:21.863Z,112.00
2022-12-23T09:44:21.847Z,108.00
2022-12-23T09:45:21.830Z,108.00
2022-12-23T09:46:22.085Z,104.00
2022-12-23T09:47:21.799Z,104.00
2022-12-23T09:48:21.797Z,104.00
2022-12-23T09:49:21.781Z,100.00
2022-12-23T09:50:21.772Z,100.00
2022-12-23T09:51:21.767Z,108.00
2022-12-23T09:52:21.780Z,108.00
2022-12-23T09:53:21.735Z,100.00
2022-12-23T09:54:21.722Z,100.00
2022-12-23T09:55:21.703Z,92.00
2022-12-23T09:56:21.741Z,88.00
2022-12-23T09:57:21.683Z,88.00
2022-12-23T09:58:21.673Z,100.00
2022-12-23T09:59:21.655Z,104.00
2022-12-23T10:00:21.643Z,104.00
2022-12-23T10:01:21.821Z,108.00
2022-12-23T10:02:21.826Z,96.00
2022-12-23T10:03:21.910Z,92.00
2022-12-23T10:04:21.634Z,112.00
2022-12-23T10:05:21.572Z,116.00
2022-12-23T10:06:21.584Z,108.00
2022-12-23T10:07:21.545Z,104.00
2022-12-23T10:08:21.713Z,104.00
2022-12-23T10:09:21.525Z,108.00
2022-12-23T10:10:21.515Z,104.00
2022-12-23T10:11:21.508Z,104.00
2022-12-23T10:12:27.623Z,104.00
2022-12-23T10:13:22.649Z,104.00
2022-12-23T10:14:21.466Z,104.00
2022-12-23T10:15:21.455Z,104.00
2022-12-23T10:16:21.512Z,104.00
2022-12-23T10:17:21.436Z,104.00
2022-12-23T10:18:21.423Z,112.00
2022-12-23T10:19:21.391Z,112.00
2022-12-23T10:20:21.390Z,116.00
2022-12-23T10:21:21.360Z,128.00
2022-12-23T10:22:21.356Z,136.00
2022-12-23T10:23:21.336Z,140.00
2022-12-23T10:24:21.363Z,140.00
2022-12-23T10:25:21.301Z,144.00
2022-12-23T10:26:21.293Z,152.00
2022-12-23T10:27:21.279Z,156.00
2022-12-23T10:28:21.284Z,156.00
2022-12-23T10:29:21.433Z,160.00
2022-12-23T10:31:39.953Z,164.00
2022-12-23T10:32:22.263Z,160.00
2022-12-23T10:33:21.209Z,164.00
2022-12-23T10:34:21.528Z,160.00
2022-12-23T10:35:21.184Z,164.00
2022-12-23T10:36:21.178Z,168.00
2022-12-23T10:37:21.139Z,168.00
2022-12-23T10:38:21.142Z,172.00
2022-12-23T10:39:21.129Z,168.00
2022-12-23T10:40:21.122Z,164.00
2022-12-23T10:41:21.110Z,160.00
2022-12-23T10:42:21.109Z,156.00
2022-12-23T10:43:21.258Z,156.00
2022-12-23T10:44:22.019Z,160.00
2022-12-23T10:45:21.074Z,160.00
2022-12-23T10:46:21.083Z,160.00
2022-12-23T10:47:21.033Z,168.00
2022-12-23T10:48:21.006Z,176.00
2022-12-23T10:49:21.168Z,188.00
2022-12-23T10:50:20.976Z,200.00
2022-12-23T10:51:20.973Z,216.00
2022-12-23T10:52:20.949Z,224.00
2022-12-23T10:53:20.956Z,220.00
2022-12-23T10:54:21.117Z,216.00
2022-12-23T10:55:21.089Z,224.00
2022-12-23T10:56:20.906Z,228.00
2022-12-23T10:57:20.891Z,228.00
2022-12-23T10:58:21.045Z,232.00
2022-12-23T10:59:20.864Z,232.00
2022-12-23T11:00:20.878Z,244.00
2022-12-23T11:01:26.573Z,248.00
2022-12-23T11:02:21.906Z,240.00
2022-12-23T11:03:20.973Z,224.00
2022-12-23T11:04:20.798Z,212.00
2022-12-23T11:05:20.845Z,204.00
2022-12-23T11:06:20.793Z,192.00
2022-12-23T11:08:21.908Z,168.00
2022-12-23T11:09:20.804Z,152.00
2022-12-23T11:10:20.756Z,144.00
2022-12-23T11:11:20.706Z,128.00
2022-12-23T11:12:20.860Z,116.00
2022-12-23T11:13:20.690Z,116.00
2022-12-23T11:14:20.667Z,116.00
2022-12-23T11:15:20.651Z,128.00
2022-12-23T11:16:20.701Z,148.00
2022-12-23T11:17:20.803Z,160.00
2022-12-23T11:18:20.780Z,168.00
2022-12-23T11:19:20.613Z,164.00
2022-12-23T11:20:20.595Z,160.00
2022-12-23T11:21:20.577Z,164.00
2022-12-23T11:22:20.566Z,160.00
2022-12-23T11:23:20.733Z,148.00
2022-12-23T11:24:20.531Z,156.00
2022-12-23T11:25:20.528Z,172.00
2022-12-23T11:26:20.692Z,188.00
2022-12-23T11:27:20.503Z,200.00
2022-12-23T11:28:20.495Z,240.00
2022-12-23T11:29:20.512Z,264.00
2022-12-23T11:30:20.485Z,292.00
2022-12-23T11:31:20.525Z,296.00
2022-12-23T11:32:20.448Z,284.00
2022-12-23T11:33:20.421Z,284.00
2022-12-23T11:34:20.651Z,288.00
2022-12-23T11:35:20.438Z,292.00
2022-12-23T11:36:20.377Z,284.00
2022-12-23T11:37:20.358Z,268.00
2022-12-23T11:38:20.348Z,260.00
2022-12-23T11:39:20.530Z,252.00
2022-12-23T11:40:20.316Z,240.00
2022-12-23T11:41:20.318Z,208.00
2022-12-23T11:42:20.296Z,180.00
2022-12-23T11:43:20.285Z,152.00
2022-12-23T11:44:20.282Z,128.00
2022-12-23T11:45:20.268Z,108.00
2022-12-23T11:46:20.297Z,96.00
2022-12-23T11:47:20.285Z,92.00
2022-12-23T11:48:20.215Z,92.00
2022-12-23T11:49:20.212Z,92.00
2022-12-23T11:50:20.193Z,84.00
2022-12-23T11:51:20.185Z,76.00
2022-12-23T11:52:20.169Z,64.00
2022-12-23T11:53:20.174Z,64.00
2022-12-23T11:54:20.318Z,60.00
2022-12-23T11:55:20.161Z,64.00
2022-12-23T11:56:20.331Z,68.00
2022-12-23T11:57:20.113Z,68.00
2022-12-23T11:58:20.083Z,68.00
2022-12-23T11:59:20.075Z,68.00
2022-12-23T12:00:20.078Z,72.00
2022-12-23T12:01:20.091Z,76.00
2022-12-23T12:02:20.112Z,84.00
2022-12-23T12:03:20.126Z,96.00
2022-12-23T12:04:20.007Z,112.00
2022-12-23T12:05:20.197Z,120.00
2022-12-23T12:06:19.985Z,132.00
2022-12-23T12:07:19.966Z,148.00
2022-12-23T12:08:19.952Z,168.00
2022-12-23T12:09:19.948Z,176.00
2022-12-23T12:10:20.101Z,188.00
2022-12-23T12:11:20.090Z,200.00
2022-12-23T12:12:19.903Z,208.00
2022-12-23T12:13:19.939Z,212.00
2022-12-23T12:14:19.880Z,212.00
2022-12-23T12:15:19.870Z,212.00
2022-12-23T12:16:20.064Z,200.00
2022-12-23T12:17:19.844Z,184.00
2022-12-23T12:18:19.833Z,172.00
2022-12-23T12:19:19.832Z,168.00
2022-12-23T12:20:19.981Z,160.00
2022-12-23T12:21:19.783Z,152.00
2022-12-23T12:22:19.781Z,136.00
2022-12-23T12:23:19.759Z,120.00
2022-12-23T12:24:19.978Z,112.00
2022-12-23T12:25:19.914Z,108.00
2022-12-23T12:26:19.722Z,108.00
2022-12-23T12:27:19.701Z,108.00
2022-12-23T12:28:19.690Z,108.00
2022-12-23T12:29:19.683Z,108.00
2022-12-23T12:30:19.670Z,108.00
2022-12-23T12:31:19.724Z,112.00
2022-12-23T12:32:19.646Z,112.00
2022-12-23T12:33:19.640Z,108.00
2022-12-23T12:34:19.616Z,96.00
2022-12-23T12:35:19.777Z,84.00
2022-12-23T12:36:19.635Z,76.00
2022-12-23T12:37:19.576Z,68.00
2022-12-23T12:38:19.555Z,72.00
2022-12-23T12:39:19.547Z,76.00
2022-12-23T12:40:19.543Z,84.00
2022-12-23T12:41:19.515Z,92.00
2022-12-23T12:42:19.506Z,92.00
2022-12-23T12:43:19.498Z,92.00
2022-12-23T12:44:19.473Z,92.00
2022-12-23T12:45:19.644Z,88.00
2022-12-23T12:46:19.704Z,84.00
2022-12-23T12:47:52.071Z,88.00
2022-12-23T12:48:20.435Z,88.00
2022-12-23T12:49:19.431Z,92.00
2022-12-23T12:50:19.404Z,88.00
2022-12-23T12:51:19.562Z,92.00
2022-12-23T12:52:19.376Z,88.00
2022-12-23T12:53:19.367Z,84.00
2022-12-23T12:54:19.369Z,76.00
2022-12-23T12:55:19.365Z,72.00
2022-12-23T12:56:19.493Z,60.00
2022-12-23T12:57:19.303Z,56.00
2022-12-23T12:58:19.305Z,48.00
2022-12-23T12:59:19.290Z,52.00
2022-12-23T13:00:19.268Z,60.00
2022-12-23T13:01:19.467Z,72.00
2022-12-23T13:02:19.292Z,80.00
2022-12-23T13:03:19.248Z,92.00
2022-12-23T13:04:19.215Z,100.00
2022-12-23T13:05:19.200Z,108.00